Weather observations for the past three days for
Lehighton Jake Arner Memorial Airport
Imperial (Metric)
Date Time (edt) Wind (mph) Vis. (mi.) Weather Sky Cond. Temperature (ºF) Relative Humidity Wind Chill (°F) Heat Index (°F) Pressure Precipitation (in)
Air Dwpt 6 hour altimeter (in) sea level (mb) 1 hr 3 hr 6 hr
Max. Min.
02 18:15 NW 7 10.00 Overcast SCT075 OVC085 55.4 24.8 31% 29.87 0.0
02 17:55 NW 5 10.00 Overcast OVC075 53.6 26.6 35% 29.88 0.0
02 17:35 N 6 10.00 Mostly Cloudy BKN070 BKN085 53.6 26.6 35% 29.87 0.0
02 17:15 W 6 10.00 Mostly Cloudy BKN085 55.4 23 28% 29.86 0.0
02 16:55 W 5 10.00 Mostly Cloudy SCT070 BKN085 53.6 24.8 33% 29.87 0.0
02 16:35 NW 6 10.00 Mostly Cloudy SCT070 BKN085 55.4 26.6 33% 29.87 0.0
02 16:15 NW 6 10.00 Mostly Cloudy SCT070 BKN080 55.4 24.8 31% 29.87 0.0
02 15:55 NW 6 10.00 Overcast SCT070 OVC080 53.6 24.8 33% 29.88 0.0
02 15:35 NW 3 10.00 Mostly Cloudy SCT070 BKN080 55.4 26.6 33% 29.89 0.0
02 15:15 W 8 10.00 Overcast OVC080 55.4 26.6 33% 29.9 0.0
02 14:55 NW 5 10.00 Mostly Cloudy BKN080 55.4 26.6 33% 29.9 0.0
02 14:35 W 3 10.00 Partly Cloudy SCT070 55.4 24.8 31% 29.9 0.0
02 14:15 Calm 10.00 Fair CLR 55.4 24.8 31% 29.9 0.0
02 13:55 W 3 10.00 Mostly Cloudy BKN065 55.4 28.4 36% 29.91 0.0
02 13:35 Calm 10.00 Partly Cloudy SCT065 53.6 28.4 38% 29.91 0.0
02 13:15 W 3 10.00 Partly Cloudy SCT065 53.6 28.4 38% 29.91 0.0
02 12:55 N 3 10.00 Partly Cloudy SCT065 53.6 26.6 35% 29.92 0.0
02 12:35 NE 3 10.00 Partly Cloudy SCT065 53.6 24.8 33% 29.93 0.0
02 12:15 NW 6 10.00 Partly Cloudy SCT055 53.6 26.6 35% 29.93 0.0
02 11:55 W 5 10.00 Partly Cloudy SCT055 53.6 28.4 38% 29.94 0.0
02 11:35 NW 7 10.00 Fair CLR 51.8 30.2 44% 29.93 0.0
02 11:15 N 6 10.00 Fair CLR 51.8 32 47% 29.93 0.0
02 10:55 NW 8 10.00 Partly Cloudy SCT042 51.8 32 47% 29.93 0.0
02 10:35 N 8 10.00 Fair CLR 50 32 50% 47 29.94 0.0
02 10:15 N 8 G 16 10.00 Partly Cloudy SCT037 50 32 50% 47 29.94 0.0
02 09:55 NW 9 G 16 10.00 Mostly Cloudy SCT029 BKN037 48.2 33.8 58% 45 29.94 0.0
02 09:35 NW 6 10.00 Mostly Cloudy BKN029 BKN034 48.2 35.6 62% 46 29.94 0.0
02 09:15 N 6 10.00 Fair CLR 46.4 35.6 66% 44 29.94 0.0
02 08:55 N 7 10.00 Partly Cloudy SCT024 46.4 35.6 66% 43 29.95 0.0
02 08:35 NW 8 10.00 Partly Cloudy SCT024 46.4 35.6 66% 43 29.94 0.0
02 08:15 N 3 10.00 Fair CLR 44.6 35.6 71% 29.94 0.0
02 07:55 Calm 10.00 Fair CLR 44.6 35.6 71% 29.94 0.0
02 07:35 Calm 10.00 Mostly Cloudy BKN060 42.8 35.6 76% 29.94 0.0
02 07:15 Calm 10.00 Overcast SCT044 OVC060 42.8 35.6 76% 29.94 0.0
02 06:55 N 3 10.00 Overcast OVC050 42.8 35.6 76% 29.94 0.0
02 06:35 Calm 10.00 Overcast SCT017 BKN044 OVC050 42.8 37.4 81% 29.93 0.0
02 06:15 Calm 10.00 Rain SCT017 SCT030 OVC046 42.8 39.2 87% 29.92 0.0
02 05:55 Calm 10.00 Light Rain SCT015 SCT023 OVC030 42.8 41 93% 29.91 0.0
02 05:35 Calm 4.00 Fog/Mist SCT015 BKN030 OVC038 44.6 42.8 93% 29.9 0.0
02 05:15 Calm 3.00 Drizzle SCT003 BKN026 OVC036 44.6 42.8 93% 29.89 0.0
02 04:55 Calm 1.75 Fog/Mist OVC003 44.6 42.8 93% 29.89 0.0
02 04:35 Calm 0.50 Fog OVC003 44.6 42.8 93% 29.88 0.0
02 04:15 Calm 1.75 Fog/Mist OVC003 44.6 42.8 93% 29.88 0.0
02 03:55 Calm 1.00 Fog/Mist OVC003 44.6 42.8 93% 29.88 0.0
02 03:35 Calm 5.00 Fog/Mist SCT003 BKN042 BKN055 44.6 44.6 100% 29.88 0.0
02 03:15 Calm 7.00 Light Drizzle SCT005 BKN050 OVC080 46.4 44.6 93% 29.89 0.0
02 02:55 Calm 4.00 Light Rain SCT003 BKN009 OVC080 46.4 44.6 93% 29.89 0.0
02 02:35 Calm 2.50 Rain SCT003 SCT008 OVC047 46.4 44.6 93% 29.89 0.0
02 02:15 Calm 4.00 Rain SCT003 SCT007 OVC050 46.4 44.6 93% 29.91 0.0
02 01:55 Calm 4.00 Light Rain OVC050 46.4 44.6 93% 29.91 0.0
02 01:35 Calm 5.00 Rain SCT040 OVC048 46.4 46.4 100% 29.92 0.0
02 01:15 Calm 5.00 Light Rain BKN038 OVC048 46.4 44.6 93% 29.92 0.0
02 00:55 Calm 7.00 Rain BKN036 BKN042 OVC050 46.4 46.4 100% 29.92 0.0
02 00:35 Calm 10.00 Light Rain SCT036 BKN049 OVC060 48.2 46.4 94% 29.92 0.0
02 00:15 Calm 10.00 Light Rain OVC060 48.2 46.4 94% 29.91 0.0
01 23:55 Calm 10.00 Light Rain SCT047 BKN050 OVC070 48.2 46.4 94% 29.9 0.0
01 23:35 Calm 10.00 Light Rain OVC050 48.2 46.4 94% 29.9 0.0
01 23:15 Calm 10.00 Light Rain OVC050 48.2 46.4 94% 29.9 0.0
01 22:55 Calm 10.00 Light Rain OVC050 48.2 46.4 94% 29.9 0.0
01 22:35 Calm 10.00 Overcast SCT055 BKN070 OVC090 46.4 46.4 100% 29.9 0.0
01 22:15 Calm 10.00 Overcast SCT060 SCT075 OVC090 46.4 44.6 93% 29.9 0.0
01 21:55 Calm 10.00 Mostly Cloudy SCT060 SCT075 BKN090 46.4 44.6 93% 29.9 0.0
01 21:35 Calm 10.00 Light Rain SCT065 BKN090 OVC110 48.2 44.6 87% 29.9 0.0
01 21:15 Calm 10.00 Light Rain SCT050 BKN060 OVC100 50 44.6 82% 29.9 0.0
01 20:55 Calm 10.00 Light Rain SCT050 BKN060 OVC070 51.8 41 67% 29.9 0.0
01 20:35 Calm 10.00 Overcast SCT065 SCT075 OVC085 53.6 37.4 54% 29.88 0.0
01 20:15 NW 3 10.00 Overcast BKN065 OVC085 53.6 39.2 58% 29.87 0.0
01 19:55 NW 8 10.00 Overcast SCT050 OVC065 53.6 37.4 54% 29.87 0.0
01 19:35 NW 9 10.00 Light Drizzle SCT055 OVC065 57.2 33.8 41% 29.86 0.0
01 19:15 W 6 10.00 Overcast BKN070 OVC085 59 32 36% 29.84 0.0
01 18:55 Calm 10.00 Mostly Cloudy SCT065 BKN095 59 32 36% 29.84 0.0
01 18:35 Calm 10.00 Mostly Cloudy SCT065 SCT075 BKN095 60.8 32 34% 29.84 0.0
01 18:15 Calm 10.00 Overcast SCT055 OVC065 59 32 36% 29.84 0.0
01 17:55 S 5 10.00 Overcast OVC065 59 32 36% 29.85 0.0
01 17:35 SW 3 10.00 Overcast BKN065 BKN085 OVC120 60.8 32 34% 29.84 0.0
01 17:15 S 6 10.00 Mostly Cloudy SCT065 SCT075 BKN095 60.8 32 34% 29.84 0.0
01 16:55 SW 6 10.00 Overcast BKN075 OVC095 60.8 32 34% 29.84 0.0
01 16:35 S 6 10.00 Overcast BKN070 OVC085 60.8 32 34% 29.84 0.0
01 16:15 S 6 10.00 Mostly Cloudy SCT070 BKN085 60.8 32 34% 29.84 0.0
01 15:55 SW 7 10.00 Overcast BKN070 OVC085 62.6 32 32% 29.85 0.0
01 15:35 S 6 10.00 Mostly Cloudy BKN070 BKN080 62.6 32 32% 29.85 0.0
01 15:15 W 3 10.00 Partly Cloudy SCT075 60.8 32 34% 29.85 0.0
01 14:55 Calm 10.00 Fair CLR 60.8 30.2 31% 29.86 0.0
01 14:35 SW 8 10.00 Fair CLR 62.6 30.2 30% 29.87 0.0
01 14:15 S 5 10.00 Fair CLR 60.8 30.2 31% 29.87 0.0
01 13:55 Calm 10.00 Fair CLR 60.8 30.2 31% 29.87 0.0
01 13:35 W 6 10.00 Fair CLR 60.8 30.2 31% 29.88 0.0
01 13:15 Calm 10.00 Fair CLR 59 30.2 34% 29.89 0.0
01 12:55 SW 7 10.00 Fair CLR 59 32 36% 29.9 0.0
01 12:35 Calm 10.00 Fair CLR 57.2 28.4 33% 29.9 0.0
01 12:15 W 3 10.00 Fair CLR 55.4 28.4 36% 29.91 0.0
01 11:55 NW 5 10.00 Fair CLR 55.4 26.6 33% 29.92 0.0
01 11:35 W 6 10.00 Fair CLR 55.4 32 41% 29.93 0.0
01 11:15 NW 10 10.00 Partly Cloudy SCT047 53.6 30.2 41% 29.94 0.0
01 10:55 W 5 10.00 Partly Cloudy SCT047 53.6 32 44% 29.94 0.0
01 10:35 NW 7 10.00 Partly Cloudy SCT041 SCT046 53.6 33.8 47% 29.94 0.0
01 10:15 NW 6 10.00 Mostly Cloudy SCT039 BKN046 51.8 33.8 50% 29.94 0.0
01 09:55 NW 8 10.00 Partly Cloudy SCT035 51.8 33.8 50% 29.95 0.0
01 09:35 Calm 10.00 Partly Cloudy SCT031 50 35.6 58% 29.95 0.0
01 09:15 Calm 10.00 Partly Cloudy SCT028 50 37.4 62% 29.96 0.0
01 08:55 Calm 10.00 Fair CLR 46.4 41 82% 29.97 0.0
01 08:35 SE 3 10.00 Fair CLR 42.8 41 93% 29.96 0.0
01 08:15 Calm 10.00 Partly Cloudy SCT002 41 39.2 93% 29.97 0.0
01 07:55 Calm 0.50 Fog OVC002 37.4 35.6 93% 29.97 0.0
01 07:35 Calm 0.15 Fog OVC002 35.6 33.8 93% 29.97 0.0
01 07:15 Calm 0.25 Fog OVC002 33.8 32 93% 29.97 0.0
01 06:55 Calm 0.25 Fog OVC002 32 32 100% 29.96 0.0
01 06:35 Calm 2.00 Fog/Mist BKN002 32 32 100% 29.95 0.0
01 06:15 Calm 3.00 Fog/Mist SCT002 32 32 100% 29.95 0.0
01 05:55 Calm 5.00 Fog/Mist CLR 32 32 100% 29.95 0.0
01 05:35 Calm 5.00 Fog/Mist CLR 32 32 100% 29.94 0.0
01 05:15 Calm 7.00 Fair CLR 33.8 32 93% 29.93 0.0
01 04:55 Calm 5.00 Fog/Mist CLR 33.8 32 93% 29.93 0.0
01 04:35 Calm 5.00 Fog/Mist CLR 33.8 32 93% 29.93 0.0
01 04:15 Calm 3.00 Fog/Mist SCT048 33.8 33.8 100% 29.93 0.0
01 03:55 Calm 7.00 Partly Cloudy SCT048 35.6 33.8 93% 29.92 0.0
01 03:35 Calm 10.00 Partly Cloudy SCT045 37.4 35.6 93% 29.93 0.0
01 03:15 Calm 4.00 Fog/Mist CLR 37.4 35.6 93% 29.92 0.0
01 02:55 Calm 7.00 Fair CLR 37.4 35.6 93% 29.92 0.0
01 02:35 Calm 7.00 Partly Cloudy SCT050 39.2 37.4 93% 29.92 0.0
01 02:15 Calm 10.00 Mostly Cloudy BKN050 39.2 37.4 93% 29.92 0.0
01 01:55 Calm 7.00 Partly Cloudy SCT050 37.4 37.4 100% 29.92 0.0
01 01:35 Calm 7.00 Fair CLR 39.2 37.4 93% 29.92 0.0
01 01:15 Calm 10.00 Fair CLR 41 37.4 87% 29.92 0.0
01 00:55 Calm 10.00 Partly Cloudy SCT060 42.8 39.2 87% 29.91 0.0
01 00:35 NW 3 10.00 Mostly Cloudy BKN050 44.6 41 87% 29.91 0.0
01 00:15 Calm 10.00 Overcast OVC050 46.4 41 82% 29.9 0.0
30 23:55 NW 5 10.00 Light Drizzle BKN050 BKN060 OVC070 44.6 44.6 100% 43 29.9 0.0
30 23:35 Calm 10.00 Overcast SCT046 BKN060 OVC070 44.6 44.6 100% 29.9 0.0
30 23:15 Calm 10.00 Light Drizzle SCT046 BKN050 OVC070 44.6 44.6 100% 29.91 0.0
30 22:55 Calm 10.00 Overcast SCT041 BKN050 OVC070 46.4 44.6 93% 29.91 0.0
30 22:35 Calm 10.00 Overcast BKN050 OVC065 46.4 42.8 87% 29.9 0.0
30 22:15 Calm 10.00 Light Rain SCT038 BKN055 OVC065 46.4 42.8 87% 29.9 0.0
30 21:55 NW 5 10.00 Light Rain SCT033 BKN041 OVC047 46.4 42.8 87% 45 29.9 0.0
30 21:35 NW 5 7.00 Rain SCT027 SCT034 OVC043 48.2 44.6 87% 47 29.9 0.0
30 21:15 W 3 7.00 Rain SCT033 OVC041 48.2 46.4 94% 29.88 0.0
30 20:55 Calm 10.00 Light Rain SCT038 BKN044 OVC050 48.2 46.4 94% 29.87 0.0
30 20:35 Calm 10.00 Light Rain SCT048 OVC050 48.2 44.6 87% 29.86 0.0
30 20:15 Calm 10.00 Light Rain SCT040 SCT046 OVC050 50 44.6 82% 29.85 0.0
30 19:55 Calm 7.00 Rain SCT026 SCT038 OVC050 50 44.6 82% 29.85 0.0
30 19:35 NW 3 7.00 Rain SCT026 BKN046 OVC060 50 44.6 82% 29.84 0.0
30 19:15 NW 3 10.00 Rain SCT039 OVC047 51.8 44.6 77% 29.83 0.0
30 18:55 NW 5 10.00 Rain BKN041 OVC050 51.8 44.6 77% 29.82 0.0
30 18:35 NW 6 10.00 Rain SCT044 OVC050 55.4 41 59% 29.8 0.0
30 18:15 Calm 10.00 Light Rain BKN050 OVC070 57.2 39.2 51% 29.78 0.0
30 17:55 N 7 10.00 Overcast SCT050 OVC070 59 37.4 45% 29.77 0.0
30 17:35 N 6 10.00 Overcast SCT050 OVC080 59 37.4 45% 29.76 0.0
30 17:15 Calm 10.00 Overcast OVC070 59 37.4 45% 29.75 0.0
30 16:55 Calm 10.00 Overcast OVC070 59 41 51% 29.76 0.0
30 16:35 W 3 10.00 Overcast SCT055 OVC070 59 39.2 48% 29.76 0.0
30 16:15 Calm 10.00 Overcast OVC055 59 41 51% 29.76 0.0
30 15:55 NW 3 10.00 Overcast OVC065 57.2 37.4 48% 29.76 0.0
30 15:35 NW 6 10.00 Overcast OVC050 57.2 39.2 51% 29.76 0.0
30 15:15 NW 3 10.00 Overcast SCT041 OVC050 57.2 41 55% 29.76 0.0
30 14:55 NW 5 10.00 Overcast BKN039 OVC050 57.2 41 55% 29.76 0.0
30 14:35 NW 5 10.00 Overcast OVC048 57.2 41 55% 29.76 0.0
30 14:15 NW 5 10.00 Overcast OVC044 55.4 41 59% 29.77 0.0
30 13:55 NW 5 10.00 Overcast SCT030 OVC040 55.4 41 59% 29.77 0.0
30 13:35 N 6 10.00 Overcast BKN030 BKN036 OVC049 55.4 42.8 63% 29.77 0.0
30 13:15 Calm 10.00 Overcast SCT028 BKN040 OVC047 55.4 44.6 67% 29.77 0.0
30 12:55 Calm 10.00 Overcast SCT031 OVC041 55.4 42.8 63% 29.78 0.0
30 12:35 Calm 10.00 Overcast BKN031 OVC041 53.6 42.8 67% 29.78 0.0
30 12:15 NW 6 10.00 Overcast SCT021 BKN031 OVC041 53.6 44.6 72% 29.78 0.0
30 11:55 N 5 10.00 Overcast BKN023 BKN029 OVC042 53.6 44.6 72% 29.79 0.0
30 11:35 N 6 10.00 Overcast SCT023 BKN031 OVC044 53.6 44.6 72% 29.79 0.0
30 11:15 NW 3 10.00 Overcast SCT021 OVC029 53.6 44.6 72% 29.79 0.0
30 10:55 NW 8 10.00 Overcast OVC023 53.6 44.6 72% 29.79 0.0
30 10:35 NW 3 10.00 Overcast BKN023 OVC031 53.6 46.4 77% 29.78 0.0
30 10:15 NW 3 10.00 Overcast BKN021 OVC033 53.6 46.4 77% 29.77 0.0
30 09:55 Calm 10.00 Overcast SCT021 BKN027 OVC050 53.6 48.2 82% 29.77 0.0
30 09:35 Calm 10.00 Overcast BKN003 BKN011 OVC027 51.8 48.2 88% 29.77 0.0
30 09:15 Calm 2.50 Fog/Mist BKN003 OVC009 50 48.2 94% 29.77 0.0
30 08:55 Calm 4.00 Fog/Mist SCT003 OVC010 48.2 46.4 94% 29.77 0.0
30 08:35 Calm 1.25 Fog/Mist BKN003 OVC010 48.2 46.4 94% 29.76 0.0
30 08:15 Calm 1.50 Fog/Mist SCT005 OVC010 46.4 46.4 100% 29.77 0.0
30 07:55 Calm 1.75 Fog/Mist SCT003 OVC010 46.4 46.4 100% 29.77 0.0
30 07:35 Calm 3.00 Fog/Mist SCT003 OVC010 46.4 46.4 100% 29.77 0.0
30 07:15 Calm 1.75 Fog/Mist SCT003 OVC012 46.4 46.4 100% 29.77 0.0
30 06:55 Calm 2.00 Fog/Mist SCT003 OVC009 46.4 46.4 100% 29.77 0.0
30 06:35 Calm 1.75 Fog/Mist OVC007 46.4 44.6 93% 29.77 0.0
30 06:15 Calm 2.50 Light Drizzle OVC007 46.4 44.6 93% 29.77 0.0
30 05:55 Calm 3.00 Light Rain OVC007 46.4 44.6 93% 29.76 0.0
30 05:35 Calm 7.00 Overcast OVC007 46.4 46.4 100% 29.75 0.0
30 05:15 Calm 7.00 Overcast OVC007 46.4 46.4 100% 29.74 0.0
30 04:55 Calm 7.00 Overcast OVC007 46.4 44.6 93% 29.74 0.0
30 04:35 Calm 7.00 Overcast OVC009 46.4 44.6 93% 29.74 0.0
30 04:15 Calm 7.00 Overcast OVC009 46.4 44.6 93% 29.75 0.0
30 03:55 Calm 7.00 Overcast OVC009 46.4 44.6 93% 29.75 0.0
30 03:35 Calm 4.00 Fog/Mist OVC009 46.4 44.6 93% 29.76 0.0
30 03:15 Calm 5.00 Rain OVC009 46.4 44.6 93% 29.76 0.0
30 02:55 Calm 5.00 Fog/Mist OVC009 46.4 44.6 93% 29.77 0.0
30 02:35 Calm 4.00 Light Drizzle OVC009 46.4 44.6 93% 29.77 0.0
30 02:15 Calm 5.00 Fog/Mist OVC009 46.4 44.6 93% 29.78 0.0
30 01:55 Calm 5.00 Light Rain OVC011 46.4 44.6 93% 29.78 0.0
30 01:35 Calm 10.00 Overcast OVC011 46.4 44.6 93% 29.78 0.0
30 01:15 Calm 10.00 Overcast OVC013 48.2 44.6 87% 29.79 0.0
30 00:55 Calm 10.00 Overcast OVC013 48.2 44.6 87% 29.79 0.0
30 00:35 Calm 10.00 Overcast OVC015 48.2 44.6 87% 29.79 0.0
30 00:15 Calm 10.00 Overcast OVC013 48.2 44.6 87% 29.81 0.0
29 23:55 SE 6 10.00 Overcast OVC013 48.2 44.6 87% 46 29.81 0.0
29 23:35 Calm 10.00 Overcast OVC013 48.2 46.4 94% 29.81 0.0
29 23:15 Calm 10.00 Light Rain BKN015 BKN021 OVC065 48.2 46.4 94% 29.8 0.0
29 22:55 SE 3 7.00 Light Rain OVC017 50 46.4 88% 29.82 0.0
29 22:35 Calm 5.00 Light Rain OVC017 50 46.4 88% 29.82 0.0
29 22:15 SE 3 5.00 Heavy Rain OVC017 50 46.4 88% 29.83 0.0
29 21:55 E 3 10.00 Rain OVC017 50 46.4 88% 29.82 0.0
29 21:35 Calm 10.00 Overcast OVC017 51.8 46.4 82% 29.82 0.0
29 21:15 Calm 10.00 Light Rain OVC019 51.8 48.2 88% 29.81 0.0
29 20:55 E 6 10.00 Light Rain BKN017 OVC022 51.8 48.2 88% 29.8 0.0
29 20:35 SE 3 10.00 Light Rain SCT019 BKN025 OVC035 51.8 50 94% 29.81 0.0
29 20:15 SE 6 10.00 Light Drizzle SCT020 SCT025 OVC035 51.8 50 94% 29.81 0.0
29 19:55 SE 7 10.00 Rain BKN020 OVC035 51.8 50 94% 29.81 0.0
29 19:35 Calm 10.00 Light Rain SCT022 OVC035 53.6 50 88% 29.82 0.0
29 19:15 Calm 7.00 Light Rain OVC033 53.6 50 88% 29.81 0.0
29 18:55 Calm 10.00 Light Rain OVC035 51.8 51.8 100% 29.81 0.0
29 18:35 Calm 7.00 Light Rain OVC035 53.6 51.8 94% 29.81 0.0
Date Time (edt) Wind (mph) Vis. (mi.) Weather Sky Cond. Air Dwpt Max. Min. Relative Humidity Wind Chill (°F) Heat Index (°F) altimeter (in) sea level (mb) 1 hr 3 hr 6 hr
6 hour
Temperature (ºF) Pressure Precipitation (in)